createdAt,value
2022-07-28T00:00:05.975Z,10.12
2022-07-28T00:01:05.963Z,10.09
2022-07-28T00:02:06.080Z,10.07
2022-07-28T00:03:06.036Z,10.09
2022-07-28T00:04:05.924Z,10.05
2022-07-28T00:05:08.920Z,10.05
2022-07-28T00:06:08.906Z,10.07
2022-07-28T00:07:05.884Z,10.04
2022-07-28T00:08:05.895Z,10.02
2022-07-28T00:09:05.875Z,10.02
2022-07-28T00:10:05.846Z,10.04
2022-07-28T00:11:05.827Z,10.01
2022-07-28T00:12:05.815Z,9.99
2022-07-28T00:13:06.760Z,9.94
2022-07-28T00:14:05.817Z,9.92
2022-07-28T00:15:05.777Z,9.89
2022-07-28T00:16:05.804Z,9.84
2022-07-28T00:17:05.758Z,9.83
2022-07-28T00:18:05.740Z,9.82
2022-07-28T00:19:05.757Z,9.82
2022-07-28T00:20:05.713Z,9.82
2022-07-28T00:21:05.870Z,9.82
2022-07-28T00:22:05.689Z,9.82
2022-07-28T00:23:05.671Z,9.86
2022-07-28T00:24:05.664Z,9.86
2022-07-28T00:25:08.651Z,9.89
2022-07-28T00:26:08.700Z,9.95
2022-07-28T00:27:05.621Z,9.95
2022-07-28T00:28:05.623Z,9.98
2022-07-28T00:29:05.601Z,10.01
2022-07-28T00:30:05.582Z,10.02
2022-07-28T00:31:07.769Z,10.05
2022-07-28T00:32:05.702Z,10.10
2022-07-28T00:33:05.555Z,10.15
2022-07-28T00:34:05.535Z,10.15
2022-07-28T00:35:05.523Z,10.16
2022-07-28T00:36:05.503Z,10.16
2022-07-28T00:37:06.751Z,10.16
2022-07-28T00:38:05.505Z,10.17
2022-07-28T00:39:05.464Z,10.17
2022-07-28T00:40:05.445Z,10.20
2022-07-28T00:41:05.437Z,10.20
2022-07-28T00:42:05.464Z,10.19
2022-07-28T00:43:05.455Z,10.19
2022-07-28T00:44:05.395Z,10.19
2022-07-28T00:45:08.390Z,10.17
2022-07-28T00:46:08.481Z,10.19
2022-07-28T00:47:05.405Z,10.19
2022-07-28T00:48:05.352Z,10.22
2022-07-28T00:49:05.421Z,10.23
2022-07-28T00:50:05.320Z,10.28
2022-07-28T00:51:05.318Z,10.34
2022-07-28T00:52:05.306Z,10.37
2022-07-28T00:53:05.290Z,10.37
2022-07-28T00:54:13.073Z,10.37
2022-07-28T00:55:05.255Z,10.40
2022-07-28T00:56:06.640Z,10.40
2022-07-28T00:57:05.274Z,10.37
2022-07-28T00:58:05.225Z,10.40
2022-07-28T00:59:05.204Z,10.42
2022-07-28T01:00:05.194Z,10.48
2022-07-28T01:01:05.177Z,10.56
2022-07-28T01:02:05.286Z,10.59
2022-07-28T01:03:05.267Z,10.61
2022-07-28T01:04:05.145Z,10.68
2022-07-28T01:05:08.127Z,10.71
2022-07-28T01:06:08.127Z,10.78
2022-07-28T01:07:05.106Z,10.81
2022-07-28T01:08:05.088Z,10.87
2022-07-28T01:09:05.129Z,10.90
2022-07-28T01:10:05.061Z,10.94
2022-07-28T01:11:05.049Z,10.97
2022-07-28T01:12:05.037Z,11.02
2022-07-28T01:13:05.029Z,11.04
2022-07-28T01:14:05.010Z,11.07
2022-07-28T01:15:05.028Z,11.10
2022-07-28T01:16:05.077Z,11.11
2022-07-28T01:17:04.997Z,11.11
2022-07-28T01:18:04.960Z,11.12
2022-07-28T01:19:04.988Z,11.14
2022-07-28T01:20:04.934Z,11.17
2022-07-28T01:21:04.922Z,11.17
2022-07-28T01:22:04.953Z,11.19
2022-07-28T01:23:04.902Z,11.23
2022-07-28T01:24:04.882Z,11.26
2022-07-28T01:25:07.873Z,11.26
2022-07-28T01:26:07.915Z,11.30
2022-07-28T01:27:04.843Z,11.27
2022-07-28T01:28:04.861Z,11.29
2022-07-28T01:29:04.823Z,11.32
2022-07-28T01:30:04.813Z,11.33
2022-07-28T01:31:04.842Z,11.35
2022-07-28T01:32:04.835Z,11.37
2022-07-28T01:33:04.768Z,11.37
2022-07-28T01:34:04.746Z,11.40
2022-07-28T01:35:04.746Z,11.40
2022-07-28T01:36:04.727Z,11.43
2022-07-28T01:37:04.727Z,11.41
2022-07-28T01:38:04.757Z,11.43
2022-07-28T01:39:04.687Z,11.41
2022-07-28T01:40:04.690Z,11.40
2022-07-28T01:41:04.674Z,11.41
2022-07-28T01:42:04.659Z,11.40
2022-07-28T01:43:04.639Z,11.41
2022-07-28T01:44:04.660Z,11.41
2022-07-28T01:45:07.629Z,11.41
2022-07-28T01:46:07.648Z,11.44
2022-07-28T01:47:04.589Z,11.44
2022-07-28T01:48:04.640Z,11.43
2022-07-28T01:49:04.685Z,11.41
2022-07-28T01:50:04.541Z,11.41
2022-07-28T01:51:04.540Z,11.40
2022-07-28T01:52:04.519Z,11.37
2022-07-28T01:53:04.501Z,11.36
2022-07-28T01:54:04.534Z,11.36
2022-07-28T01:55:04.506Z,11.35
2022-07-28T01:56:04.473Z,11.36
2022-07-28T01:57:04.453Z,11.35
2022-07-28T01:58:04.432Z,11.35
2022-07-28T01:59:04.421Z,11.36
2022-07-28T02:00:04.582Z,11.33
2022-07-28T02:01:04.404Z,11.35
2022-07-28T02:02:04.466Z,11.35
2022-07-28T02:03:04.375Z,11.33
2022-07-28T02:04:04.365Z,11.35
2022-07-28T02:05:07.420Z,11.36
2022-07-28T02:06:07.406Z,11.37
2022-07-28T02:07:04.315Z,11.37
2022-07-28T02:08:04.317Z,11.36
2022-07-28T02:09:04.297Z,11.35
2022-07-28T02:10:04.288Z,11.36
2022-07-28T02:11:04.329Z,11.35
2022-07-28T02:12:04.268Z,11.35
2022-07-28T02:13:04.257Z,11.33
2022-07-28T02:14:04.228Z,11.32
2022-07-28T02:15:04.227Z,11.32
2022-07-28T02:16:04.251Z,11.33
2022-07-28T02:17:04.230Z,11.33
2022-07-28T02:18:04.177Z,11.35
2022-07-28T02:19:04.175Z,11.35
2022-07-28T02:20:04.159Z,11.32
2022-07-28T02:21:04.212Z,11.29
2022-07-28T02:22:04.130Z,11.27
2022-07-28T02:23:04.129Z,11.27
2022-07-28T02:24:04.101Z,11.27
2022-07-28T02:25:07.082Z,11.27
2022-07-28T02:26:07.124Z,11.32
2022-07-28T02:27:04.059Z,11.30
2022-07-28T02:28:04.111Z,11.33
2022-07-28T02:29:04.032Z,11.35
2022-07-28T02:30:04.012Z,11.35
2022-07-28T02:31:04.060Z,11.35
2022-07-28T02:32:04.025Z,11.33
2022-07-28T02:33:05.003Z,11.32
2022-07-28T02:34:03.964Z,11.33
2022-07-28T02:35:03.953Z,11.36
2022-07-28T02:36:03.936Z,11.37
2022-07-28T02:37:03.926Z,11.36
2022-07-28T02:38:03.934Z,11.37
2022-07-28T02:39:03.885Z,11.41
2022-07-28T02:40:03.874Z,11.45
2022-07-28T02:41:03.874Z,11.47
2022-07-28T02:42:03.865Z,11.48
2022-07-28T02:43:03.897Z,11.51
2022-07-28T02:44:03.828Z,11.52
2022-07-28T02:45:06.826Z,11.54
2022-07-28T02:46:06.828Z,11.55
2022-07-28T02:47:03.798Z,11.54
2022-07-28T02:48:03.780Z,11.55
2022-07-28T02:49:03.872Z,11.55
2022-07-28T02:50:03.759Z,11.54
2022-07-28T02:51:03.747Z,11.54
2022-07-28T02:52:03.729Z,11.52
2022-07-28T02:53:15.742Z,11.55
2022-07-28T02:54:04.728Z,11.57
2022-07-28T02:55:03.689Z,11.60
2022-07-28T02:56:03.670Z,11.59
2022-07-28T02:57:03.658Z,11.59
2022-07-28T02:58:05.393Z,11.59
2022-07-28T02:59:03.631Z,11.57
2022-07-28T03:00:03.624Z,11.59
2022-07-28T03:01:03.640Z,11.59
2022-07-28T03:02:03.594Z,11.60
2022-07-28T03:03:03.583Z,11.60
2022-07-28T03:04:03.733Z,11.62
2022-07-28T03:05:11.453Z,11.63
2022-07-28T03:06:07.567Z,11.65
2022-07-28T03:07:03.532Z,11.63
2022-07-28T03:08:03.524Z,11.62
2022-07-28T03:09:03.504Z,11.60
2022-07-28T03:10:03.544Z,11.59
2022-07-28T03:11:03.477Z,11.59
2022-07-28T03:12:03.463Z,11.52
2022-07-28T03:13:03.462Z,11.50
2022-07-28T03:14:03.440Z,11.48
2022-07-28T03:15:03.437Z,11.45
2022-07-28T03:16:03.436Z,11.44
2022-07-28T03:17:03.448Z,11.43
2022-07-28T03:18:03.399Z,11.41
2022-07-28T03:19:03.378Z,11.36
2022-07-28T03:20:03.365Z,11.33
2022-07-28T03:21:03.399Z,11.30
2022-07-28T03:22:03.347Z,11.27
2022-07-28T03:23:03.329Z,11.22
2022-07-28T03:24:03.320Z,11.19
2022-07-28T03:25:06.322Z,11.14
2022-07-28T03:26:06.327Z,11.12
2022-07-28T03:27:03.309Z,11.07
2022-07-28T03:28:03.250Z,11.02
2022-07-28T03:29:03.241Z,10.97
2022-07-28T03:30:04.150Z,10.96
2022-07-28T03:31:03.262Z,10.92
2022-07-28T03:32:03.218Z,10.89
2022-07-28T03:33:03.225Z,10.87
2022-07-28T03:34:03.214Z,10.86
2022-07-28T03:35:03.181Z,10.84
2022-07-28T03:36:03.163Z,10.82
2022-07-28T03:37:03.145Z,10.81
2022-07-28T03:38:03.133Z,10.79
2022-07-28T03:39:03.143Z,10.76
2022-07-28T03:40:03.115Z,10.75
2022-07-28T03:41:03.094Z,10.72
2022-07-28T03:42:03.087Z,10.71
2022-07-28T03:43:03.122Z,10.72
2022-07-28T03:44:03.059Z,10.72
2022-07-28T03:45:06.047Z,10.69
2022-07-28T03:46:09.880Z,10.72
2022-07-28T03:47:04.007Z,10.67
2022-07-28T03:48:03.000Z,10.68
2022-07-28T03:49:03.164Z,10.67
2022-07-28T03:50:02.975Z,10.64
2022-07-28T03:51:02.958Z,10.67
2022-07-28T03:52:02.950Z,10.67
2022-07-28T03:53:02.930Z,10.64
2022-07-28T03:54:02.927Z,10.68
2022-07-28T03:55:02.958Z,10.69
2022-07-28T03:56:02.900Z,10.69
2022-07-28T03:57:02.881Z,10.71
2022-07-28T03:58:02.870Z,10.72
2022-07-28T03:59:02.859Z,10.69
2022-07-28T04:00:06.184Z,10.69
2022-07-28T04:01:03.918Z,10.68
2022-07-28T04:02:02.854Z,10.67
2022-07-28T04:03:02.800Z,10.68
2022-07-28T04:04:02.814Z,10.63
2022-07-28T04:05:05.781Z,10.57
2022-07-28T04:06:05.827Z,10.57
2022-07-28T04:07:02.759Z,10.56
2022-07-28T04:08:02.758Z,10.57
2022-07-28T04:09:02.747Z,10.59
2022-07-28T04:10:02.742Z,10.61
2022-07-28T04:11:02.714Z,10.68
2022-07-28T04:12:02.693Z,10.75
2022-07-28T04:13:02.703Z,10.82
2022-07-28T04:14:02.674Z,10.92
2022-07-28T04:15:02.653Z,10.97
2022-07-28T04:16:02.648Z,11.05
2022-07-28T04:17:02.702Z,11.10
2022-07-28T04:18:02.655Z,11.17
2022-07-28T04:19:02.705Z,11.23
2022-07-28T04:20:02.656Z,11.27
2022-07-28T04:21:02.567Z,11.32
2022-07-28T04:22:02.562Z,11.37
2022-07-28T04:23:02.545Z,11.41
2022-07-28T04:24:02.548Z,11.47
2022-07-28T04:25:05.559Z,11.47
2022-07-28T04:26:05.531Z,11.51
2022-07-28T04:27:02.490Z,11.50
2022-07-28T04:28:02.489Z,11.51
2022-07-28T04:29:03.392Z,11.57
2022-07-28T04:30:02.461Z,11.60
2022-07-28T04:31:02.557Z,11.65
2022-07-28T04:32:02.432Z,11.66
2022-07-28T04:33:02.414Z,11.68
2022-07-28T04:34:02.401Z,11.75
2022-07-28T04:35:02.381Z,11.80
2022-07-28T04:36:02.409Z,11.83
2022-07-28T04:37:02.413Z,11.86
2022-07-28T04:38:02.378Z,11.86
2022-07-28T04:39:02.332Z,11.88
2022-07-28T04:40:02.324Z,11.88
2022-07-28T04:41:02.304Z,11.90
2022-07-28T04:42:02.295Z,11.91
2022-07-28T04:43:02.304Z,11.97
2022-07-28T04:44:02.267Z,12.02
2022-07-28T04:45:05.246Z,12.04
2022-07-28T04:46:05.295Z,12.07
2022-07-28T04:47:02.224Z,12.03
2022-07-28T04:48:03.885Z,12.00
2022-07-28T04:49:02.303Z,11.95
2022-07-28T04:50:02.184Z,11.90
2022-07-28T04:51:02.168Z,11.84
2022-07-28T04:52:02.157Z,11.81
2022-07-28T04:53:02.135Z,11.78
2022-07-28T04:54:02.148Z,11.81
2022-07-28T04:55:02.113Z,11.83
2022-07-28T04:56:02.446Z,11.87
2022-07-28T04:57:02.079Z,11.95
2022-07-28T04:58:03.090Z,11.99
2022-07-28T04:59:02.057Z,12.00
2022-07-28T05:00:02.038Z,12.02
2022-07-28T05:01:02.077Z,12.02
2022-07-28T05:02:02.010Z,12.06
2022-07-28T05:03:02.047Z,12.10
2022-07-28T05:04:01.982Z,12.12
2022-07-28T05:05:05.031Z,12.13
2022-07-28T05:06:04.964Z,12.20
2022-07-28T05:07:01.941Z,12.21
2022-07-28T05:08:02.952Z,12.29
2022-07-28T05:09:01.902Z,12.36
2022-07-28T05:10:01.903Z,12.37
2022-07-28T05:11:01.872Z,12.42
2022-07-28T05:12:01.865Z,12.46
2022-07-28T05:13:01.854Z,12.50
2022-07-28T05:14:01.893Z,12.55
2022-07-28T05:15:01.824Z,12.60
2022-07-28T05:16:01.814Z,12.62
2022-07-28T05:17:01.843Z,12.64
2022-07-28T05:18:01.776Z,12.68
2022-07-28T05:19:01.766Z,12.75
2022-07-28T05:20:03.262Z,12.82
2022-07-28T05:21:01.737Z,12.86
2022-07-28T05:22:01.726Z,12.94
2022-07-28T05:23:01.709Z,13.00
2022-07-28T05:24:01.706Z,13.08
2022-07-28T05:25:04.707Z,13.15
2022-07-28T05:26:04.681Z,13.23
2022-07-28T05:27:01.658Z,13.27
2022-07-28T05:28:01.648Z,13.33
2022-07-28T05:29:01.628Z,13.39
2022-07-28T05:30:01.621Z,13.46
2022-07-28T05:31:01.665Z,13.54
2022-07-28T05:32:06.415Z,13.59
2022-07-28T05:33:02.581Z,13.67
2022-07-28T05:34:01.576Z,13.70
2022-07-28T05:35:01.541Z,13.74
2022-07-28T05:36:01.542Z,13.78
2022-07-28T05:37:01.554Z,13.79
2022-07-28T05:38:01.511Z,13.89
2022-07-28T05:39:01.494Z,13.92
2022-07-28T05:40:01.472Z,13.93
2022-07-28T05:41:01.518Z,13.95
2022-07-28T05:42:01.452Z,13.96
2022-07-28T05:43:01.434Z,13.95
2022-07-28T05:44:01.438Z,13.95
2022-07-28T05:45:04.413Z,13.95
2022-07-28T05:46:05.557Z,13.96
2022-07-28T05:47:01.388Z,13.95
2022-07-28T05:48:01.375Z,13.95
2022-07-28T05:49:01.446Z,13.93
2022-07-28T05:50:01.349Z,13.96
2022-07-28T05:51:01.337Z,13.99
2022-07-28T05:52:01.348Z,14.04
2022-07-28T05:53:01.308Z,14.08
2022-07-28T05:54:01.310Z,14.11
2022-07-28T05:55:01.277Z,14.14
2022-07-28T05:56:01.960Z,14.14
2022-07-28T05:57:01.249Z,14.15
2022-07-28T05:58:01.240Z,14.15
2022-07-28T05:59:01.259Z,14.14
2022-07-28T06:00:01.211Z,14.17
2022-07-28T06:01:01.387Z,14.14
2022-07-28T06:02:01.299Z,14.14
2022-07-28T06:03:01.190Z,14.12
2022-07-28T06:04:25.725Z,14.15
2022-07-28T06:05:05.139Z,14.18
2022-07-28T06:06:15.307Z,14.25
2022-07-28T06:07:02.132Z,14.23
2022-07-28T06:08:01.102Z,14.28
2022-07-28T06:09:01.132Z,14.32
2022-07-28T06:10:01.073Z,14.35
2022-07-28T06:11:01.060Z,14.37
2022-07-28T06:12:01.062Z,14.37
2022-07-28T06:13:01.033Z,14.41
2022-07-28T06:14:01.042Z,14.40
2022-07-28T06:15:01.034Z,14.41
2022-07-28T06:16:01.046Z,14.43
2022-07-28T06:17:01.049Z,14.44
2022-07-28T06:18:00.965Z,14.45
2022-07-28T06:19:00.986Z,14.48
2022-07-28T06:20:00.953Z,14.48
2022-07-28T06:21:00.940Z,14.50
2022-07-28T06:22:00.909Z,14.53
2022-07-28T06:23:00.900Z,14.54
2022-07-28T06:24:00.918Z,14.58
2022-07-28T06:25:03.880Z,14.58
2022-07-28T06:26:03.878Z,14.62
2022-07-28T06:27:00.849Z,14.65
2022-07-28T06:28:00.830Z,14.66
2022-07-28T06:29:00.849Z,14.66
2022-07-28T06:30:00.801Z,14.70
2022-07-28T06:31:00.840Z,14.72
2022-07-28T06:32:00.814Z,14.73
2022-07-28T06:33:00.765Z,14.79
2022-07-28T06:34:00.747Z,14.84
2022-07-28T06:35:00.732Z,14.85
2022-07-28T06:36:00.724Z,14.86
2022-07-28T06:37:00.735Z,14.82
2022-07-28T06:38:00.692Z,14.84
2022-07-28T06:39:00.752Z,14.82
2022-07-28T06:40:00.675Z,14.84
2022-07-28T06:41:00.654Z,14.84
2022-07-28T06:42:00.653Z,14.89
2022-07-28T06:43:00.624Z,14.94
2022-07-28T06:44:00.731Z,14.99
2022-07-28T06:45:03.602Z,15.03
2022-07-28T06:46:03.628Z,15.11
2022-07-28T06:47:00.661Z,15.17
2022-07-28T06:48:00.564Z,15.24
2022-07-28T06:49:00.618Z,15.25
2022-07-28T06:50:00.533Z,15.28
2022-07-28T06:51:00.515Z,15.31
2022-07-28T06:52:00.508Z,15.35
2022-07-28T06:53:00.508Z,15.36
2022-07-28T06:54:00.517Z,15.43
2022-07-28T07:31:45.712Z,16.99
2022-07-28T07:32:44.374Z,17.04
2022-07-28T07:33:46.366Z,17.08
2022-07-28T07:34:44.266Z,17.09
2022-07-28T07:35:44.280Z,17.12
2022-07-28T07:36:44.248Z,17.08
2022-07-28T07:37:44.262Z,17.15
2022-07-28T07:38:44.233Z,17.24
2022-07-28T07:39:44.209Z,17.33
2022-07-28T07:40:44.200Z,17.39
2022-07-28T07:41:44.213Z,17.41
2022-07-28T07:42:44.194Z,17.45
2022-07-28T07:44:35.458Z,17.67
2022-07-28T07:45:35.441Z,17.76
2022-07-28T07:46:35.479Z,17.76
2022-07-28T07:47:35.440Z,17.86
2022-07-28T07:48:35.463Z,17.95
2022-07-28T07:49:45.369Z,18.03
2022-07-28T07:50:36.371Z,18.01
2022-07-28T07:51:35.353Z,18.04
2022-07-28T07:52:35.346Z,18.18
2022-07-28T07:53:35.371Z,18.29
2022-07-28T07:54:35.313Z,18.31
2022-07-28T07:55:37.689Z,18.41
2022-07-28T07:56:35.285Z,18.47
2022-07-28T07:57:35.265Z,18.53
2022-07-28T07:58:35.256Z,18.45
2022-07-28T07:59:35.289Z,18.47
2022-07-28T08:00:35.254Z,18.56
2022-07-28T08:01:35.280Z,18.62
2022-07-28T08:02:36.199Z,18.74
2022-07-28T08:03:38.188Z,18.88
2022-07-28T08:04:38.581Z,19.00
2022-07-28T08:05:36.382Z,19.14
2022-07-28T08:06:35.806Z,19.29
2022-07-28T08:07:35.128Z,19.39
2022-07-28T08:08:41.647Z,19.52
2022-07-28T08:09:36.100Z,19.51
2022-07-28T08:10:35.110Z,19.56
2022-07-28T08:11:35.122Z,19.64
2022-07-28T08:12:35.060Z,19.67
2022-07-28T08:13:35.044Z,19.67
2022-07-28T08:14:35.037Z,19.69
2022-07-28T08:15:35.022Z,19.64
2022-07-28T08:16:35.081Z,19.59
2022-07-28T08:17:35.013Z,19.58
2022-07-28T08:18:34.997Z,19.41
2022-07-28T08:19:34.972Z,19.27
2022-07-28T08:20:34.982Z,19.21
2022-07-28T08:21:34.975Z,19.30
2022-07-28T08:22:34.924Z,19.45
2022-07-28T08:23:37.917Z,19.52
2022-07-28T08:24:37.912Z,19.56
2022-07-28T08:25:34.898Z,19.54
2022-07-28T08:26:34.910Z,19.58
2022-07-28T08:27:34.856Z,19.67
2022-07-28T08:28:34.850Z,19.74
2022-07-28T08:29:34.830Z,19.84
2022-07-28T08:30:34.827Z,19.86
2022-07-28T08:31:35.426Z,19.96
2022-07-28T08:32:34.849Z,20.04
2022-07-28T08:33:34.779Z,20.09
2022-07-28T08:34:36.009Z,20.09
2022-07-28T08:35:35.702Z,20.09
2022-07-28T08:36:34.740Z,20.06
2022-07-28T08:37:34.720Z,20.10
2022-07-28T08:38:34.752Z,20.13
2022-07-28T08:39:34.724Z,20.00
2022-07-28T08:40:34.700Z,19.95
2022-07-28T08:41:34.673Z,19.96
2022-07-28T08:42:34.690Z,20.06
2022-07-28T08:43:37.643Z,20.09
2022-07-28T08:44:37.686Z,20.04
2022-07-28T08:45:37.296Z,19.89
2022-07-28T08:46:34.648Z,19.94
2022-07-28T08:47:58.643Z,19.89
2022-07-28T08:48:35.603Z,19.94
2022-07-28T08:49:34.566Z,19.94
2022-07-28T08:50:34.580Z,19.89
2022-07-28T08:51:34.535Z,19.96
2022-07-28T08:52:34.525Z,20.00
2022-07-28T08:53:34.542Z,20.07
2022-07-28T08:54:34.498Z,20.00
2022-07-28T08:55:34.478Z,19.96
2022-07-28T08:56:34.498Z,19.89
2022-07-28T08:57:34.460Z,19.81
2022-07-28T08:58:34.440Z,19.73
2022-07-28T08:59:34.430Z,19.71
2022-07-28T09:00:34.419Z,19.73
2022-07-28T09:01:38.737Z,19.76
2022-07-28T09:02:35.547Z,19.84
2022-07-28T09:03:37.453Z,19.88
2022-07-28T09:04:37.453Z,19.81
2022-07-28T09:05:34.341Z,19.47
2022-07-28T09:06:34.335Z,19.07
2022-07-28T09:07:34.329Z,18.75
2022-07-28T09:08:34.313Z,18.80
2022-07-28T09:09:34.306Z,19.00
2022-07-28T09:10:34.304Z,19.12
2022-07-28T09:11:34.265Z,19.18
2022-07-28T09:12:34.255Z,19.31
2022-07-28T09:13:34.236Z,19.40
2022-07-28T09:14:34.266Z,19.54
2022-07-28T09:15:34.308Z,19.56
2022-07-28T09:16:34.210Z,19.63
2022-07-28T09:17:34.190Z,19.70
2022-07-28T09:18:34.170Z,19.76
2022-07-28T09:19:35.835Z,19.79
2022-07-28T09:20:34.190Z,19.84
2022-07-28T09:21:34.129Z,19.89
2022-07-28T09:22:34.120Z,19.96
2022-07-28T09:23:44.031Z,20.00
2022-07-28T09:24:38.102Z,20.02
2022-07-28T09:25:34.081Z,19.91
2022-07-28T09:26:34.100Z,19.58
2022-07-28T09:27:34.052Z,19.34
2022-07-28T09:28:34.042Z,19.39
2022-07-28T09:29:34.022Z,19.44
2022-07-28T09:30:34.022Z,19.41
2022-07-28T09:31:34.077Z,19.47
2022-07-28T09:32:33.983Z,19.51
2022-07-28T09:33:41.157Z,19.55
2022-07-28T09:34:34.965Z,19.58
2022-07-28T09:35:33.956Z,19.69
2022-07-28T09:36:33.939Z,19.74
2022-07-28T09:37:33.946Z,19.70
2022-07-28T09:38:33.908Z,19.70
2022-07-28T09:39:33.887Z,19.79
2022-07-28T09:40:33.893Z,19.85
2022-07-28T09:41:33.871Z,19.86
2022-07-28T09:42:33.881Z,19.89
2022-07-28T09:43:36.838Z,19.94
2022-07-28T09:44:36.840Z,20.02
2022-07-28T09:45:33.809Z,20.02
2022-07-28T09:46:33.996Z,19.89
2022-07-28T09:47:34.025Z,19.88
2022-07-28T09:48:33.985Z,19.85
2022-07-28T09:49:33.885Z,19.86
2022-07-28T09:50:33.751Z,19.86
2022-07-28T09:51:33.732Z,19.77
2022-07-28T09:52:33.763Z,19.77
2022-07-28T09:53:33.705Z,19.81
2022-07-28T09:54:38.766Z,19.85
2022-07-28T09:55:34.677Z,19.89
2022-07-28T09:56:33.663Z,19.91
2022-07-28T09:57:33.684Z,19.94
2022-07-28T09:58:33.639Z,19.99
2022-07-28T09:59:33.636Z,20.02
2022-07-28T10:00:33.618Z,19.91
2022-07-28T10:01:36.678Z,19.70
2022-07-28T10:02:33.677Z,19.41
2022-07-28T10:03:36.576Z,19.12
2022-07-28T10:04:36.567Z,18.99
2022-07-28T10:05:33.561Z,18.98
2022-07-28T10:06:33.528Z,19.02
2022-07-28T10:07:33.519Z,19.12
2022-07-28T10:08:33.529Z,19.24
2022-07-28T10:09:33.524Z,19.27
2022-07-28T10:10:33.470Z,19.31
2022-07-28T10:11:37.711Z,19.41
2022-07-28T10:12:34.450Z,19.52
2022-07-28T10:13:33.434Z,19.58
2022-07-28T10:14:33.454Z,19.49
2022-07-28T10:15:33.469Z,19.40
2022-07-28T10:16:33.468Z,19.54
2022-07-28T10:17:33.385Z,19.56
2022-07-28T10:18:33.425Z,19.69
2022-07-28T10:19:33.371Z,19.81
2022-07-28T10:20:33.340Z,19.94
2022-07-28T10:21:33.337Z,20.06
2022-07-28T10:22:33.507Z,20.14
2022-07-28T10:23:36.346Z,20.14
2022-07-28T10:24:36.298Z,20.26
2022-07-28T10:25:33.277Z,20.32
2022-07-28T10:26:33.268Z,20.41
2022-07-28T10:27:33.248Z,20.50
2022-07-28T10:28:33.228Z,20.52
2022-07-28T10:29:33.254Z,20.29
2022-07-28T10:30:33.247Z,20.09
2022-07-28T10:31:33.201Z,20.13
2022-07-28T10:32:33.179Z,20.22
2022-07-28T10:33:33.170Z,20.25
2022-07-28T10:34:33.181Z,20.32
2022-07-28T10:35:33.153Z,20.32
2022-07-28T10:36:34.131Z,20.37
2022-07-28T10:37:33.143Z,20.44
2022-07-28T10:38:33.094Z,20.51
2022-07-28T10:39:33.116Z,20.56
2022-07-28T10:40:33.075Z,20.62
2022-07-28T10:41:33.063Z,20.66
2022-07-28T10:42:33.046Z,20.70
2022-07-28T10:43:36.053Z,20.77
2022-07-28T10:44:37.056Z,20.88
2022-07-28T10:45:55.197Z,20.88
2022-07-28T10:46:34.043Z,20.93
2022-07-28T10:47:35.895Z,21.02
2022-07-28T10:48:33.051Z,20.82
2022-07-28T10:49:33.220Z,20.72
2022-07-28T10:50:32.939Z,20.60
2022-07-28T10:51:32.928Z,20.36
2022-07-28T10:52:50.687Z,20.34
2022-07-28T10:53:33.961Z,20.31
2022-07-28T10:54:32.881Z,20.13
2022-07-28T10:55:32.870Z,20.14
2022-07-28T10:56:32.863Z,20.24
2022-07-28T10:57:32.854Z,20.36
2022-07-28T10:58:32.833Z,20.47
2022-07-28T10:59:32.871Z,20.59
2022-07-28T11:00:52.789Z,20.72
2022-07-28T11:01:48.377Z,20.67
2022-07-28T11:02:33.885Z,20.65
2022-07-28T11:03:35.866Z,20.58
2022-07-28T11:04:35.813Z,20.70
2022-07-28T11:05:32.755Z,20.78
2022-07-28T11:06:32.724Z,20.84
2022-07-28T11:07:32.715Z,20.80
2022-07-28T11:08:32.699Z,20.87
2022-07-28T11:09:32.687Z,20.93
2022-07-28T11:10:32.696Z,20.90
2022-07-28T11:11:32.657Z,20.93
2022-07-28T11:12:32.655Z,20.85
2022-07-28T11:13:33.074Z,20.92
2022-07-28T11:14:32.611Z,20.95
2022-07-28T11:15:32.786Z,20.95
2022-07-28T11:16:36.846Z,20.99
2022-07-28T11:17:33.364Z,21.05
2022-07-28T11:18:32.564Z,21.02
2022-07-28T11:19:40.532Z,20.84
2022-07-28T11:20:33.582Z,20.74
2022-07-28T11:21:39.642Z,20.72
2022-07-28T11:22:34.553Z,20.40
2022-07-28T11:23:35.493Z,20.60
2022-07-28T11:24:35.494Z,20.81
2022-07-28T11:25:32.474Z,20.88
2022-07-28T11:26:32.488Z,21.05
2022-07-28T11:27:32.445Z,21.24
2022-07-28T11:28:32.434Z,21.39
2022-07-28T11:29:32.418Z,21.50
2022-07-28T11:30:32.456Z,21.62
2022-07-28T11:31:32.395Z,21.61
2022-07-28T11:32:42.245Z,21.61
2022-07-28T11:33:33.389Z,21.69
2022-07-28T11:34:32.339Z,21.61
2022-07-28T11:35:32.357Z,21.60
2022-07-28T11:36:32.340Z,21.72
2022-07-28T11:37:32.329Z,21.79
2022-07-28T11:38:32.369Z,21.60
2022-07-28T11:39:43.012Z,21.62
2022-07-28T11:40:33.265Z,21.77
2022-07-28T11:41:32.253Z,21.93
2022-07-28T11:42:32.235Z,22.17
2022-07-28T11:43:37.670Z,22.39
2022-07-28T11:44:35.222Z,22.60
2022-07-28T11:45:37.712Z,22.60
2022-07-28T11:46:33.211Z,22.10
2022-07-28T11:47:32.174Z,21.85
2022-07-28T11:48:32.185Z,21.77
2022-07-28T11:49:32.245Z,21.72
2022-07-28T11:50:32.129Z,21.54
2022-07-28T11:51:33.525Z,21.42
2022-07-28T11:52:33.105Z,21.33
2022-07-28T11:53:32.089Z,21.36
2022-07-28T11:54:32.101Z,21.54
2022-07-28T11:55:55.677Z,21.42
2022-07-28T11:56:33.048Z,21.52
2022-07-28T11:57:32.042Z,21.93
2022-07-28T11:58:32.021Z,22.41
2022-07-28T11:59:36.822Z,22.84
2022-07-28T12:00:32.999Z,23.06
2022-07-28T12:01:32.456Z,23.24
2022-07-28T12:02:33.046Z,23.28
2022-07-28T12:03:38.452Z,23.12
2022-07-28T12:04:36.090Z,23.09
2022-07-28T12:05:41.559Z,23.02
2022-07-28T12:06:32.914Z,22.96
2022-07-28T12:07:31.923Z,22.68
2022-07-28T12:08:31.886Z,22.65
2022-07-28T12:09:41.585Z,22.66
2022-07-28T12:11:02.837Z,22.51
2022-07-28T12:11:32.855Z,22.39
2022-07-28T12:12:31.845Z,22.20
2022-07-28T12:13:31.836Z,22.17
2022-07-28T12:14:34.886Z,22.17
2022-07-28T12:15:32.852Z,22.13
2022-07-28T12:16:31.860Z,22.08
2022-07-28T12:17:31.783Z,22.06
2022-07-28T12:18:31.768Z,21.99
2022-07-28T12:19:32.805Z,21.95
2022-07-28T12:20:31.730Z,21.79
2022-07-28T12:21:31.753Z,21.51
2022-07-28T12:22:31.701Z,21.36
2022-07-28T12:23:38.966Z,21.24
2022-07-28T12:24:46.054Z,21.22
2022-07-28T12:25:32.663Z,21.21
2022-07-28T12:26:31.865Z,21.29
2022-07-28T12:27:31.890Z,21.24
2022-07-28T12:28:31.625Z,21.25
2022-07-28T12:29:32.219Z,21.27
2022-07-28T12:30:31.595Z,21.35
2022-07-28T12:31:31.655Z,21.35
2022-07-28T12:32:31.594Z,21.29
2022-07-28T12:33:31.550Z,21.25
2022-07-28T12:34:31.527Z,21.25
2022-07-28T12:35:31.537Z,21.25
2022-07-28T12:36:31.507Z,21.24
2022-07-28T12:37:31.518Z,21.15
2022-07-28T12:38:31.509Z,20.99
2022-07-28T12:39:31.472Z,21.03
2022-07-28T12:40:31.458Z,21.06
2022-07-28T12:41:31.439Z,21.00
2022-07-28T12:42:31.481Z,21.06
2022-07-28T12:43:34.421Z,21.17
2022-07-28T12:44:34.413Z,21.12
2022-07-28T12:45:31.428Z,20.84
2022-07-28T12:46:31.373Z,20.87
2022-07-28T12:47:31.356Z,20.92
2022-07-28T12:48:31.386Z,21.03
2022-07-28T12:49:31.337Z,21.14
2022-07-28T12:50:31.322Z,21.32
2022-07-28T12:51:31.316Z,21.36
2022-07-28T12:52:31.326Z,21.45
2022-07-28T12:53:31.286Z,21.52
2022-07-28T12:54:31.266Z,21.51
2022-07-28T12:55:31.254Z,21.45
2022-07-28T12:56:31.237Z,21.54
2022-07-28T12:57:31.259Z,21.54
2022-07-28T12:58:31.218Z,21.62
2022-07-28T12:59:31.268Z,21.83
2022-07-28T13:00:31.202Z,22.04
2022-07-28T13:01:31.213Z,22.17
2022-07-28T13:02:31.177Z,22.08
2022-07-28T13:03:34.149Z,21.67
2022-07-28T13:04:34.203Z,21.43
2022-07-28T13:05:31.121Z,21.50
2022-07-28T13:06:31.125Z,21.51
2022-07-28T13:07:31.100Z,21.43
2022-07-28T13:08:31.093Z,21.36
2022-07-28T13:09:32.652Z,21.29
2022-07-28T13:10:31.268Z,20.85
2022-07-28T13:11:47.414Z,20.62
2022-07-28T13:12:32.032Z,20.26
2022-07-28T13:13:31.004Z,20.09
2022-07-28T13:14:30.997Z,20.03
2022-07-28T13:15:30.976Z,19.91
2022-07-28T13:16:31.081Z,19.71
2022-07-28T13:17:30.960Z,19.79
2022-07-28T13:18:30.938Z,19.81
2022-07-28T13:19:30.928Z,19.92
2022-07-28T13:20:30.940Z,20.04
2022-07-28T13:21:30.899Z,20.07
2022-07-28T13:22:30.885Z,20.02
2022-07-28T13:23:33.874Z,19.96
2022-07-28T13:24:33.872Z,20.06
2022-07-28T13:25:30.883Z,20.13
2022-07-28T13:26:30.830Z,20.18
2022-07-28T13:27:30.846Z,20.29
2022-07-28T13:28:30.804Z,20.25
2022-07-28T13:29:30.793Z,20.14
2022-07-28T13:30:30.786Z,20.22